createdAt,value
2022-10-01T00:01:15.671Z,0.30
2022-10-01T00:03:43.371Z,0.50
2022-10-01T00:06:20.571Z,0.40
2022-10-01T00:08:49.458Z,0.30
2022-10-01T00:11:22.709Z,0.30
2022-10-01T00:13:50.770Z,0.30
2022-10-01T00:16:24.386Z,0.43
2022-10-01T00:18:53.909Z,0.50
2022-10-01T00:21:23.378Z,0.52
2022-10-01T00:23:59.645Z,0.38
2022-10-01T00:26:30.122Z,0.40
2022-10-01T00:28:59.442Z,0.35
2022-10-01T00:31:27.270Z,0.30
2022-10-01T00:33:55.430Z,0.60
2022-10-01T00:36:22.232Z,0.40
2022-10-01T00:38:49.016Z,0.50
2022-10-01T00:41:17.552Z,0.50
2022-10-01T00:43:50.603Z,1.10
2022-10-01T00:46:25.189Z,0.40
2022-10-01T00:48:57.510Z,0.55
2022-10-01T00:51:28.282Z,0.75
2022-10-01T00:54:03.127Z,0.70
2022-10-01T00:56:31.114Z,0.93
2022-10-01T00:58:58.415Z,0.60
2022-10-01T01:01:25.320Z,1.45
2022-10-01T01:03:52.167Z,1.42
2022-10-01T01:06:19.157Z,1.42
2022-10-01T01:08:46.016Z,0.77
2022-10-01T01:12:05.075Z,0.90
2022-10-01T01:14:41.965Z,1.50
2022-10-01T01:17:21.118Z,0.90
2022-10-01T01:19:53.891Z,0.70
2022-10-01T01:22:24.487Z,0.75
2022-10-01T01:24:57.532Z,0.85
2022-10-01T01:27:41.856Z,2.90
2022-10-01T01:30:11.779Z,1.15
2022-10-01T01:32:47.874Z,1.15
2022-10-01T01:35:32.249Z,1.23
2022-10-01T01:38:10.351Z,1.13
2022-10-01T01:40:41.006Z,1.13
2022-10-01T01:43:14.174Z,1.52
2022-10-01T01:45:42.424Z,1.42
2022-10-01T01:48:13.231Z,1.30
2022-10-01T01:50:57.612Z,1.75
2022-10-01T01:53:26.050Z,1.10
2022-10-01T01:55:53.885Z,1.30
2022-10-01T01:58:21.091Z,1.95
2022-10-01T02:00:54.094Z,0.98
2022-10-01T02:03:25.449Z,1.80
2022-10-01T02:06:10.263Z,2.05
2022-10-01T02:08:59.994Z,0.93
2022-10-01T02:11:32.888Z,1.50
2022-10-01T02:14:02.933Z,1.33
2022-10-01T02:16:53.826Z,1.95
2022-10-01T02:19:35.639Z,1.00
2022-10-01T02:22:12.612Z,1.27
2022-10-01T02:24:41.936Z,1.20
2022-10-01T02:27:15.589Z,1.52
2022-10-01T02:29:45.249Z,1.60
2022-10-01T02:32:14.204Z,3.20
2022-10-01T02:34:41.899Z,2.35
2022-10-01T02:37:10.255Z,1.73
2022-10-01T02:39:38.853Z,1.70
2022-10-01T02:42:06.870Z,1.38
2022-10-01T02:44:38.676Z,1.23
2022-10-01T02:47:07.933Z,2.72
2022-10-01T02:49:36.036Z,2.58
2022-10-01T02:52:28.821Z,3.10
2022-10-01T02:55:04.050Z,1.48
2022-10-01T02:57:32.396Z,2.05
2022-10-01T03:00:01.676Z,2.83
2022-10-01T03:02:31.247Z,1.00
2022-10-01T03:04:59.986Z,1.10
2022-10-01T03:07:28.777Z,1.83
2022-10-01T03:09:56.333Z,1.23
2022-10-01T03:12:24.053Z,1.40
2022-10-01T03:14:51.207Z,1.40
2022-10-01T03:17:18.091Z,1.63
2022-10-01T03:19:44.903Z,1.70
2022-10-01T03:22:13.717Z,1.88
2022-10-01T03:24:40.606Z,1.38
2022-10-01T03:27:07.382Z,1.23
2022-10-01T03:29:34.103Z,2.90
2022-10-01T03:32:01.058Z,1.70
2022-10-01T03:34:27.911Z,2.40
2022-10-01T03:36:54.658Z,1.20
2022-10-01T03:39:21.406Z,1.25
2022-10-01T03:41:48.180Z,1.20
2022-10-01T03:44:14.958Z,1.05
2022-10-01T03:46:41.948Z,1.45
2022-10-01T03:49:08.722Z,1.55
2022-10-01T03:51:37.453Z,2.42
2022-10-01T03:54:06.710Z,1.15
2022-10-01T03:56:34.103Z,1.92
2022-10-01T03:59:01.332Z,1.60
2022-10-01T04:01:28.182Z,0.80
2022-10-01T04:03:55.053Z,1.63
2022-10-01T04:06:21.929Z,1.48
2022-10-01T04:08:48.675Z,2.05
2022-10-01T04:11:15.582Z,1.88
2022-10-01T04:13:42.633Z,2.15
2022-10-01T04:16:10.931Z,0.95
2022-10-01T04:18:37.766Z,1.00
2022-10-01T04:21:05.142Z,1.40
2022-10-01T04:23:31.910Z,1.10
2022-10-01T04:26:00.896Z,1.20
2022-10-01T04:28:28.300Z,1.05
2022-10-01T04:31:15.211Z,1.20
2022-10-01T04:33:42.064Z,2.53
2022-10-01T04:36:09.012Z,1.30
2022-10-01T04:38:36.137Z,1.10
2022-10-01T04:41:02.976Z,2.38
2022-10-01T04:43:29.733Z,1.10
2022-10-01T04:45:56.469Z,2.53
2022-10-01T04:48:24.242Z,1.77
2022-10-01T04:50:51.119Z,1.30
2022-10-01T04:53:17.902Z,1.90
2022-10-01T04:55:46.553Z,1.73
2022-10-01T04:58:13.604Z,1.70
2022-10-01T05:00:40.401Z,1.00
2022-10-01T05:03:07.246Z,3.00
2022-10-01T05:05:35.131Z,1.83
2022-10-01T05:08:02.581Z,2.97
2022-10-01T05:10:29.696Z,2.58
2022-10-01T05:12:58.038Z,1.33
2022-10-01T05:15:24.826Z,2.00
2022-10-01T05:17:51.685Z,1.20
2022-10-01T05:20:26.010Z,2.22
2022-10-01T05:22:53.324Z,1.88
2022-10-01T05:25:20.682Z,4.00
2022-10-01T05:27:47.511Z,1.45
2022-10-01T05:30:20.161Z,1.50
2022-10-01T05:32:55.415Z,1.35
2022-10-01T05:35:22.142Z,1.50
2022-10-01T05:37:53.067Z,3.60
2022-10-01T05:40:20.006Z,1.92
2022-10-01T05:42:47.314Z,1.85
2022-10-01T05:45:14.131Z,1.50
2022-10-01T05:47:42.426Z,1.33
2022-10-01T05:50:10.036Z,2.92
2022-10-01T05:52:36.760Z,2.25
2022-10-01T05:55:03.839Z,1.38
2022-10-01T05:57:31.431Z,1.20
2022-10-01T05:59:58.419Z,1.02
2022-10-01T06:02:25.357Z,1.30
2022-10-01T06:04:52.294Z,1.25
2022-10-01T06:07:19.055Z,4.00
2022-10-01T06:09:45.824Z,1.60
2022-10-01T06:12:15.409Z,1.23
2022-10-01T06:14:45.782Z,1.30
2022-10-01T06:17:12.574Z,1.20
2022-10-01T06:19:39.360Z,1.48
2022-10-01T06:22:06.132Z,1.35
2022-10-01T06:24:33.279Z,1.52
2022-10-01T06:27:00.095Z,1.25
2022-10-01T06:29:26.877Z,1.33
2022-10-01T06:31:54.379Z,0.98
2022-10-01T06:34:21.185Z,1.60
2022-10-01T06:36:47.975Z,1.80
2022-10-01T06:39:14.736Z,2.08
2022-10-01T06:41:43.554Z,1.17
2022-10-01T06:44:10.776Z,1.92
2022-10-01T06:46:37.553Z,1.25
2022-10-01T06:49:04.324Z,1.92
2022-10-01T06:51:49.887Z,1.02
2022-10-01T06:54:18.345Z,1.10
2022-10-01T06:56:45.244Z,1.23
2022-10-01T06:59:12.214Z,1.90
2022-10-01T07:01:39.357Z,2.13
2022-10-01T07:04:06.349Z,1.63
2022-10-01T07:06:33.134Z,0.73
2022-10-01T07:09:00.169Z,0.73
2022-10-01T07:11:27.254Z,0.73
2022-10-01T07:13:54.845Z,0.82
2022-10-01T07:16:21.771Z,0.80
2022-10-01T07:18:48.744Z,0.70
2022-10-01T07:21:15.626Z,0.63
2022-10-01T07:23:43.264Z,2.97
2022-10-01T07:26:10.518Z,0.65
2022-10-01T07:28:37.292Z,1.02
2022-10-01T07:31:07.282Z,1.10
2022-10-01T07:33:34.131Z,1.23
2022-10-01T07:36:02.197Z,0.63
2022-10-01T07:38:29.225Z,1.25
2022-10-01T07:40:56.074Z,0.50
2022-10-01T07:43:23.079Z,0.77
2022-10-01T07:45:50.301Z,0.50
2022-10-01T07:48:17.295Z,2.10
2022-10-01T07:50:48.030Z,0.70
2022-10-01T07:53:14.950Z,0.95
2022-10-01T07:55:41.935Z,0.95
2022-10-01T07:58:09.833Z,1.02
2022-10-01T08:00:36.640Z,0.50
2022-10-01T08:03:03.693Z,0.50
2022-10-01T08:05:33.443Z,0.60
2022-10-01T08:08:06.974Z,0.43
2022-10-01T08:10:36.658Z,1.17
2022-10-01T08:13:14.749Z,1.95
2022-10-01T08:15:44.252Z,0.47
2022-10-01T08:18:11.719Z,2.05
2022-10-01T08:20:42.348Z,0.73
2022-10-01T08:23:12.219Z,0.52
2022-10-01T08:25:40.778Z,0.40
2022-10-01T08:28:09.758Z,1.95
2022-10-01T08:30:38.650Z,0.60
2022-10-01T08:33:05.923Z,2.17
2022-10-01T08:35:32.785Z,0.45
2022-10-01T08:38:06.760Z,0.40
2022-10-01T08:40:38.201Z,0.65
2022-10-01T08:43:07.102Z,0.77
2022-10-01T08:45:45.899Z,0.52
2022-10-01T08:48:31.296Z,1.30
2022-10-01T08:51:04.016Z,0.60
2022-10-01T08:53:40.437Z,0.52
2022-10-01T08:56:24.125Z,0.43
2022-10-01T08:58:59.006Z,0.52
2022-10-01T09:01:27.326Z,0.40
2022-10-01T09:03:54.842Z,0.30
2022-10-01T09:06:28.385Z,0.40
2022-10-01T09:09:35.654Z,0.40
2022-10-01T09:12:19.231Z,0.50
2022-10-01T09:14:49.047Z,0.88
2022-10-01T09:17:37.817Z,0.50
2022-10-01T09:20:22.832Z,0.65
2022-10-01T09:22:58.703Z,0.98
2022-10-01T09:25:27.311Z,0.90
2022-10-01T09:28:15.984Z,0.47
2022-10-01T09:31:09.611Z,0.75
2022-10-01T09:33:43.354Z,2.30
2022-10-01T09:36:47.547Z,1.00
2022-10-01T09:39:31.922Z,0.40
2022-10-01T09:41:59.770Z,0.30
2022-10-01T09:44:32.970Z,0.50
2022-10-01T09:47:00.026Z,0.80
2022-10-01T09:49:39.496Z,0.40
2022-10-01T09:52:10.675Z,0.30
2022-10-01T09:54:49.219Z,0.40
2022-10-01T09:57:31.554Z,0.30
2022-10-01T10:00:21.225Z,0.73
2022-10-01T10:02:50.954Z,0.77
2022-10-01T10:05:24.806Z,0.30
2022-10-01T10:07:55.070Z,0.32
2022-10-01T10:10:36.924Z,0.22
2022-10-01T10:13:35.366Z,0.22
2022-10-01T10:16:26.454Z,0.30
2022-10-01T10:19:14.054Z,0.20
2022-10-01T10:21:52.042Z,0.30
2022-10-01T10:24:33.730Z,0.20
2022-10-01T10:27:03.283Z,0.40
2022-10-01T10:29:32.530Z,0.40
2022-10-01T10:32:03.843Z,0.43
2022-10-01T10:34:39.003Z,0.40
2022-10-01T10:37:19.214Z,0.30
2022-10-01T10:39:51.228Z,0.20
2022-10-01T10:42:23.100Z,0.40
2022-10-01T10:44:53.530Z,0.30
2022-10-01T10:47:22.383Z,0.40
2022-10-01T10:49:55.804Z,0.57
2022-10-01T10:52:36.349Z,0.20
2022-10-01T10:55:32.167Z,0.20
2022-10-01T10:58:14.451Z,0.30
2022-10-01T11:00:48.051Z,0.30
2022-10-01T11:03:17.818Z,0.30
2022-10-01T11:05:44.707Z,0.63
2022-10-01T11:08:19.472Z,1.00
2022-10-01T11:11:09.734Z,0.40
2022-10-01T11:13:51.581Z,0.35
2022-10-01T11:16:36.899Z,0.43
2022-10-01T11:19:11.361Z,0.30
2022-10-01T11:22:00.166Z,0.45
2022-10-01T11:24:33.601Z,1.05
2022-10-01T11:27:11.261Z,0.55
2022-10-01T11:30:33.325Z,0.50
2022-10-01T11:33:27.552Z,0.70
2022-10-01T11:36:20.135Z,1.20
2022-10-01T11:38:58.458Z,0.70
2022-10-01T11:41:31.909Z,0.88
2022-10-01T11:44:13.824Z,1.38
2022-10-01T11:46:50.360Z,0.88
2022-10-01T11:49:17.710Z,0.55
2022-10-01T11:51:51.907Z,1.02
2022-10-01T11:54:25.934Z,1.55
2022-10-01T11:57:14.918Z,0.60
2022-10-01T11:59:49.975Z,0.50
2022-10-01T12:02:25.311Z,0.70
2022-10-01T12:05:01.579Z,1.45
2022-10-01T12:07:44.826Z,1.30
2022-10-01T12:10:41.897Z,0.60
2022-10-01T12:13:22.710Z,0.60
2022-10-01T12:15:58.966Z,2.17
2022-10-01T12:18:39.148Z,0.40
2022-10-01T12:21:27.901Z,0.65
2022-10-01T12:24:13.826Z,0.70
2022-10-01T12:27:05.102Z,0.63
2022-10-01T12:29:40.759Z,0.32
2022-10-01T12:32:13.799Z,0.50
2022-10-01T12:35:19.439Z,0.65
2022-10-01T12:38:17.383Z,0.70
2022-10-01T12:41:14.723Z,0.30
2022-10-01T12:44:09.117Z,0.77
2022-10-01T12:46:47.757Z,0.70
2022-10-01T12:49:25.929Z,0.93
2022-10-01T12:52:12.460Z,0.38
2022-10-01T12:54:57.731Z,0.30
2022-10-01T12:57:57.189Z,0.40
2022-10-01T13:00:26.490Z,0.30
2022-10-01T13:03:12.227Z,0.30
2022-10-01T13:05:47.627Z,0.22
2022-10-01T13:08:17.411Z,0.30
2022-10-01T13:11:03.693Z,0.35
2022-10-01T13:13:35.021Z,0.93
2022-10-01T13:16:13.261Z,0.25
2022-10-01T13:18:56.312Z,0.32
2022-10-01T13:21:47.293Z,0.40
2022-10-01T13:24:32.508Z,0.22
2022-10-01T13:27:20.606Z,0.30
2022-10-01T13:30:13.939Z,0.45
2022-10-01T13:32:54.620Z,0.30
2022-10-01T13:35:26.250Z,0.25
2022-10-01T13:37:53.891Z,0.47
2022-10-01T13:40:33.422Z,0.50
2022-10-01T13:43:18.430Z,0.30
2022-10-01T13:45:48.188Z,0.80
2022-10-01T13:48:23.809Z,0.45
2022-10-01T13:51:12.748Z,1.10
2022-10-01T13:53:42.228Z,1.13
2022-10-01T13:56:14.629Z,0.25
2022-10-01T13:58:47.624Z,0.40
2022-10-01T14:01:23.660Z,0.30
2022-10-01T14:04:19.113Z,0.60
2022-10-01T14:07:22.241Z,1.73
2022-10-01T14:09:52.035Z,3.30
2022-10-01T14:12:43.778Z,0.90
2022-10-01T14:15:42.499Z,1.38
2022-10-01T14:18:23.562Z,1.10
2022-10-01T14:21:08.319Z,0.52
2022-10-01T14:23:43.834Z,1.83
2022-10-01T14:26:25.927Z,2.13
2022-10-01T14:29:19.240Z,2.15
2022-10-01T14:32:02.019Z,1.55
2022-10-01T14:35:20.887Z,1.98
2022-10-01T14:37:47.814Z,1.27
2022-10-01T14:40:19.594Z,2.22
2022-10-01T14:42:58.896Z,0.98
2022-10-01T14:45:26.150Z,0.93
2022-10-01T14:48:07.176Z,1.58
2022-10-01T14:50:37.172Z,2.75
2022-10-01T14:53:05.357Z,0.82
2022-10-01T14:55:34.742Z,2.75
2022-10-01T14:58:01.654Z,0.75
2022-10-01T15:00:30.530Z,2.33
2022-10-01T15:03:09.566Z,0.88
2022-10-01T15:05:37.356Z,1.98
2022-10-01T15:08:38.443Z,0.40
2022-10-01T15:11:09.093Z,1.75
2022-10-01T15:13:42.993Z,0.90
2022-10-01T15:16:24.865Z,2.50
2022-10-01T15:19:05.866Z,1.42
2022-10-01T15:21:37.750Z,1.52
2022-10-01T15:24:07.566Z,1.42
2022-10-01T15:26:34.771Z,3.40
2022-10-01T15:29:07.262Z,1.65
2022-10-01T15:31:34.801Z,2.85
2022-10-01T15:34:03.886Z,1.23
2022-10-01T15:36:31.290Z,1.15
2022-10-01T15:38:59.333Z,1.85
2022-10-01T15:41:32.566Z,2.30
2022-10-01T15:44:03.377Z,1.50
2022-10-01T15:46:34.773Z,0.63
2022-10-01T15:49:25.176Z,2.20
2022-10-01T15:52:22.248Z,2.05
2022-10-01T15:54:58.813Z,2.00
2022-10-01T15:57:27.240Z,1.15
2022-10-01T15:59:56.808Z,1.77
2022-10-01T16:02:30.348Z,2.10
2022-10-01T16:05:05.546Z,0.70
2022-10-01T16:07:36.322Z,1.52
2022-10-01T16:10:32.150Z,2.30
2022-10-01T16:12:59.466Z,1.85
2022-10-01T16:15:30.617Z,1.15
2022-10-01T16:18:05.110Z,1.95
2022-10-01T16:20:31.828Z,2.00
2022-10-01T16:23:44.672Z,2.70
2022-10-01T16:26:27.267Z,3.65
2022-10-01T16:29:03.277Z,2.15
2022-10-01T16:31:31.138Z,3.83
2022-10-01T16:33:58.103Z,1.80
2022-10-01T16:36:26.305Z,2.70
2022-10-01T16:38:53.742Z,2.70
2022-10-01T16:41:24.543Z,4.53
2022-10-01T16:43:53.356Z,3.08
2022-10-01T16:46:20.187Z,2.17
2022-10-01T16:48:49.634Z,2.22
2022-10-01T16:51:16.494Z,1.50
2022-10-01T16:53:43.604Z,1.75
2022-10-01T16:56:14.242Z,1.95
2022-10-01T16:58:43.146Z,1.67
2022-10-01T17:01:13.774Z,1.92
2022-10-01T17:03:41.037Z,2.90
2022-10-01T17:06:07.937Z,1.65
2022-10-01T17:08:34.736Z,2.00
2022-10-01T17:11:02.634Z,3.35
2022-10-01T17:13:35.100Z,2.55
2022-10-01T17:16:02.444Z,1.83
2022-10-01T17:18:29.274Z,1.80
2022-10-01T17:20:56.351Z,1.25
2022-10-01T17:23:23.568Z,3.55
2022-10-01T17:25:50.450Z,1.42
2022-10-01T17:28:20.141Z,1.90
2022-10-01T17:30:48.786Z,3.08
2022-10-01T17:33:18.821Z,1.25
2022-10-01T17:35:54.511Z,2.28
2022-10-01T17:38:22.672Z,1.30
2022-10-01T17:40:55.477Z,1.60
2022-10-01T17:43:23.464Z,1.60
2022-10-01T17:45:56.200Z,1.40
2022-10-01T17:48:23.122Z,2.95
2022-10-01T17:51:08.702Z,2.20
2022-10-01T17:53:42.265Z,1.52
2022-10-01T17:56:19.672Z,3.05
2022-10-01T17:58:46.622Z,2.63
2022-10-01T18:01:22.728Z,2.63
2022-10-01T18:04:00.314Z,2.28
2022-10-01T18:06:27.777Z,1.23
2022-10-01T18:08:55.931Z,3.22
2022-10-01T18:11:25.317Z,1.92
2022-10-01T18:13:53.086Z,2.83
2022-10-01T18:16:20.190Z,2.85
2022-10-01T18:21:33.916Z,2.63
2022-10-01T18:24:04.513Z,2.88
2022-10-01T18:26:32.680Z,1.95
2022-10-01T18:29:00.245Z,1.58
2022-10-01T18:31:34.049Z,1.65
2022-10-01T18:34:03.181Z,1.75
2022-10-01T18:36:56.528Z,1.92
2022-10-01T18:39:38.435Z,2.60
2022-10-01T18:42:14.887Z,1.00
2022-10-01T18:44:41.890Z,1.63
2022-10-01T18:47:34.767Z,0.85
2022-10-01T18:50:28.481Z,1.60
2022-10-01T18:53:14.507Z,2.78
2022-10-01T18:55:53.405Z,3.80
2022-10-01T18:58:32.239Z,1.77
2022-10-01T19:01:40.602Z,2.38
2022-10-01T19:04:25.543Z,2.10
2022-10-01T19:07:22.360Z,5.00
2022-10-01T19:10:28.278Z,2.15
2022-10-01T19:13:24.144Z,0.68
2022-10-01T19:16:06.426Z,2.25
2022-10-01T19:18:48.101Z,1.85
2022-10-01T19:21:37.668Z,2.08
2022-10-01T19:24:37.966Z,2.08
2022-10-01T19:27:17.756Z,3.63
2022-10-01T19:30:08.722Z,1.35
2022-10-01T19:32:47.931Z,2.10
2022-10-01T19:35:43.948Z,3.08
2022-10-01T19:38:36.415Z,2.05
2022-10-01T19:41:15.053Z,1.52
2022-10-01T19:43:57.732Z,2.92
2022-10-01T19:46:36.074Z,4.05
2022-10-01T19:49:20.673Z,2.45
2022-10-01T19:51:59.399Z,1.80
2022-10-01T19:54:36.422Z,2.38
2022-10-01T19:57:27.361Z,4.32
2022-10-01T19:59:59.765Z,3.00
2022-10-01T20:02:47.054Z,2.40
2022-10-01T20:05:20.710Z,3.22
2022-10-01T20:08:10.982Z,1.73
2022-10-01T20:10:54.415Z,2.92
2022-10-01T20:13:46.721Z,4.30
2022-10-01T20:16:32.073Z,1.92
2022-10-01T20:19:29.376Z,4.43
2022-10-01T20:22:30.448Z,2.95
2022-10-01T20:24:57.173Z,3.10
2022-10-01T20:27:30.322Z,2.80
2022-10-01T20:30:14.080Z,5.40
2022-10-01T20:33:01.614Z,2.33
2022-10-01T20:35:54.366Z,3.33
2022-10-01T20:38:24.339Z,4.75
2022-10-01T20:40:55.564Z,3.35
2022-10-01T20:43:37.067Z,5.78
2022-10-01T20:46:15.070Z,2.50
2022-10-01T20:48:51.544Z,3.60
2022-10-01T20:51:36.038Z,5.32
2022-10-01T20:54:22.598Z,2.40
2022-10-01T20:57:20.232Z,2.40
2022-10-01T20:59:53.227Z,3.25
2022-10-01T21:02:41.663Z,4.63
2022-10-01T21:05:40.528Z,2.40
2022-10-01T21:08:37.391Z,5.45
2022-10-01T21:11:16.535Z,4.68
2022-10-01T21:14:06.080Z,6.85
2022-10-01T21:17:00.957Z,2.90
2022-10-01T21:19:46.280Z,2.55
2022-10-01T21:22:45.828Z,5.45
2022-10-01T21:25:26.727Z,3.42
2022-10-01T21:28:07.841Z,5.43
2022-10-01T21:30:49.281Z,4.53
2022-10-01T21:33:32.408Z,3.08
2022-10-01T21:36:02.305Z,4.43
2022-10-01T21:38:40.657Z,2.67
2022-10-01T21:41:26.693Z,4.45
2022-10-01T21:44:10.084Z,5.07
2022-10-01T21:46:38.163Z,4.82
2022-10-01T21:49:24.453Z,3.03
2022-10-01T21:52:10.616Z,3.97
2022-10-01T21:54:53.490Z,2.53
2022-10-01T21:57:43.250Z,2.30
2022-10-01T22:00:22.738Z,3.53
2022-10-01T22:03:29.747Z,6.47
2022-10-01T22:06:07.233Z,5.35
2022-10-01T22:08:52.833Z,5.32
2022-10-01T22:11:23.530Z,5.75
2022-10-01T22:13:58.970Z,3.30
2022-10-01T22:16:31.715Z,7.45
2022-10-01T22:19:11.067Z,7.35
2022-10-01T22:21:45.256Z,4.40
2022-10-01T22:24:19.031Z,5.35
2022-10-01T22:26:54.118Z,3.45
2022-10-01T22:29:24.910Z,3.05
2022-10-01T22:31:57.256Z,6.05
2022-10-01T22:34:34.125Z,4.13
2022-10-01T22:37:08.381Z,5.13
2022-10-01T22:39:42.076Z,3.58
2022-10-01T22:42:38.317Z,5.82
2022-10-01T22:45:17.620Z,3.17
2022-10-01T22:47:49.931Z,3.05
2022-10-01T22:50:22.698Z,4.43
2022-10-01T22:52:58.550Z,2.97
2022-10-01T22:55:54.720Z,3.25
2022-10-01T22:58:47.189Z,1.73
2022-10-01T23:01:35.638Z,2.78
2022-10-01T23:04:05.458Z,3.25
2022-10-01T23:07:00.044Z,2.50
2022-10-01T23:09:45.595Z,2.03
2022-10-01T23:12:51.749Z,4.03
2022-10-01T23:15:43.777Z,4.32
2022-10-01T23:18:25.455Z,5.25
2022-10-01T23:21:32.680Z,3.65
2022-10-01T23:24:14.839Z,2.28
2022-10-01T23:26:58.586Z,6.18
2022-10-01T23:30:00.232Z,2.95
2022-10-01T23:33:11.892Z,6.70
2022-10-01T23:35:38.974Z,6.07
2022-10-01T23:38:15.440Z,1.67
2022-10-01T23:40:45.511Z,4.97
2022-10-01T23:43:35.778Z,3.05
2022-10-01T23:46:17.538Z,4.07
2022-10-01T23:48:48.564Z,2.67
2022-10-01T23:51:19.789Z,3.97
2022-10-01T23:53:49.615Z,2.72
2022-10-01T23:56:39.867Z,4.28
2022-10-01T23:59:28.394Z,1.83
